createdAt,value
2022-10-01T00:01:19.299Z,100573.50
2022-10-01T00:03:49.580Z,100529.34
2022-10-01T00:06:21.345Z,100546.28
2022-10-01T00:08:50.100Z,100495.13
2022-10-01T00:11:25.529Z,100521.47
2022-10-01T00:13:53.397Z,100546.59
2022-10-01T00:16:23.232Z,100511.16
2022-10-01T00:18:50.428Z,100535.25
2022-10-01T00:21:19.309Z,100480.66
2022-10-01T00:23:46.237Z,100505.25
2022-10-01T00:26:17.057Z,100515.53
2022-10-01T00:28:46.253Z,100492.78
2022-10-01T00:31:14.450Z,100517.69
2022-10-01T00:33:41.129Z,100550.03
2022-10-01T00:36:12.298Z,100514.88
2022-10-01T00:38:42.336Z,100519.22
2022-10-01T00:41:09.988Z,100481.44
2022-10-01T00:43:42.476Z,100478.53
2022-10-01T00:46:15.212Z,100528.59
2022-10-01T00:48:53.336Z,100486.31
2022-10-01T00:51:21.203Z,100473.91
2022-10-01T00:53:50.851Z,100492.91
2022-10-01T00:56:18.984Z,100496.66
2022-10-01T00:58:46.148Z,100490.34
2022-10-01T01:01:12.809Z,100508.19
2022-10-01T01:03:39.508Z,100452.97
2022-10-01T01:06:08.240Z,100517.06
2022-10-01T01:08:35.098Z,100499.00
2022-10-01T01:11:11.853Z,100513.72
2022-10-01T01:13:55.360Z,100468.47
2022-10-01T01:16:34.109Z,100507.66
2022-10-01T01:19:20.922Z,100490.25
2022-10-01T01:21:53.211Z,100436.56
2022-10-01T01:24:46.559Z,100463.19
2022-10-01T01:27:35.511Z,100510.69
2022-10-01T01:30:06.867Z,100493.84
2022-10-01T01:33:03.365Z,100436.47
2022-10-01T01:35:35.190Z,100454.81
2022-10-01T01:38:08.560Z,100461.66
2022-10-01T01:40:37.989Z,100461.78
2022-10-01T01:43:10.338Z,100426.03
2022-10-01T01:45:40.256Z,100486.13
2022-10-01T01:48:10.056Z,100421.81
2022-10-01T01:50:43.875Z,100450.75
2022-10-01T01:53:12.800Z,100440.00
2022-10-01T01:55:39.646Z,100422.50
2022-10-01T01:58:07.273Z,100446.88
2022-10-01T02:00:34.049Z,100463.31
2022-10-01T02:03:00.638Z,100471.13
2022-10-01T02:05:35.833Z,100440.47
2022-10-01T02:08:24.124Z,100434.94
2022-10-01T02:11:01.615Z,100448.00
2022-10-01T02:13:35.226Z,100459.72
2022-10-01T02:16:18.968Z,100441.63
2022-10-01T02:19:10.109Z,100467.41
2022-10-01T02:21:58.677Z,100463.13
2022-10-01T02:24:43.490Z,100457.91
2022-10-01T02:27:45.182Z,100417.25
2022-10-01T02:30:13.226Z,100408.63
2022-10-01T02:32:45.601Z,100461.53
2022-10-01T02:35:16.403Z,100436.28
2022-10-01T02:37:46.041Z,100457.03
2022-10-01T02:40:18.389Z,100458.34
2022-10-01T02:42:55.293Z,100449.03
2022-10-01T02:45:24.968Z,100426.69
2022-10-01T02:48:07.238Z,100436.28
2022-10-01T02:50:50.633Z,100441.44
2022-10-01T02:53:23.197Z,100407.41
2022-10-01T02:55:51.326Z,100407.69
2022-10-01T02:58:21.165Z,100379.00
2022-10-01T03:00:47.746Z,100378.41
2022-10-01T03:03:14.447Z,100419.56
2022-10-01T03:05:40.972Z,100447.63
2022-10-01T03:08:07.919Z,100419.47
2022-10-01T03:10:34.913Z,100426.56
2022-10-01T03:13:01.961Z,100407.72
2022-10-01T03:15:28.657Z,100407.69
2022-10-01T03:17:55.275Z,100374.94
2022-10-01T03:20:22.573Z,100368.34
2022-10-01T03:22:49.280Z,100403.78
2022-10-01T03:25:19.155Z,100399.72
2022-10-01T03:27:46.592Z,100385.72
2022-10-01T03:30:13.243Z,100371.84
2022-10-01T03:32:39.715Z,100402.63
2022-10-01T03:35:06.800Z,100387.06
2022-10-01T03:37:33.362Z,100387.56
2022-10-01T03:39:59.892Z,100394.56
2022-10-01T03:42:26.384Z,100382.22
2022-10-01T03:44:55.765Z,100325.09
2022-10-01T03:47:24.451Z,100365.38
2022-10-01T03:49:54.537Z,100331.34
2022-10-01T03:52:21.128Z,100367.56
2022-10-01T03:54:47.647Z,100349.59
2022-10-01T03:57:14.176Z,100356.25
2022-10-01T03:59:40.684Z,100380.78
2022-10-01T04:02:07.774Z,100358.38
2022-10-01T04:04:34.501Z,100328.22
2022-10-01T04:07:01.065Z,100388.28
2022-10-01T04:09:29.856Z,100365.78
2022-10-01T04:11:56.530Z,100319.56
2022-10-01T04:14:23.187Z,100350.13
2022-10-01T04:16:52.615Z,100376.34
2022-10-01T04:26:39.979Z,100333.00
2022-10-01T04:29:06.458Z,100324.00
2022-10-01T04:31:35.269Z,100336.47
2022-10-01T04:34:02.349Z,100352.59
2022-10-01T04:36:31.060Z,100324.59
2022-10-01T04:39:01.634Z,100324.50
2022-10-01T04:41:30.769Z,100324.84
2022-10-01T04:43:59.464Z,100295.00
2022-10-01T04:46:26.150Z,100333.78
2022-10-01T04:48:52.610Z,100356.91
2022-10-01T04:51:19.062Z,100336.03
2022-10-01T04:53:45.655Z,100321.53
2022-10-01T04:56:12.105Z,100332.59
2022-10-01T04:58:38.591Z,100339.44
2022-10-01T05:01:05.105Z,100328.47
2022-10-01T05:03:34.643Z,100347.41
2022-10-01T05:06:01.152Z,100314.31
2022-10-01T05:08:27.887Z,100327.31
2022-10-01T05:10:54.310Z,100345.91
2022-10-01T05:13:20.837Z,100292.50
2022-10-01T05:15:49.313Z,100283.22
2022-10-01T05:18:15.947Z,100315.88
2022-10-01T05:20:42.386Z,100323.06
2022-10-01T05:23:08.964Z,100326.28
2022-10-01T05:25:35.492Z,100313.56
2022-10-01T05:28:05.336Z,100319.97
2022-10-01T05:30:33.127Z,100277.91
2022-10-01T05:33:02.178Z,100312.94
2022-10-01T05:35:29.648Z,100295.41
2022-10-01T05:37:58.199Z,100287.53
2022-10-01T05:40:27.581Z,100285.91
2022-10-01T05:43:00.754Z,100292.09
2022-10-01T05:45:29.013Z,100312.16
2022-10-01T05:48:14.477Z,100315.34
2022-10-01T05:51:04.742Z,100250.34
2022-10-01T05:54:50.575Z,100254.47
2022-10-01T06:00:36.020Z,100241.13
2022-10-01T06:03:13.093Z,100246.97
2022-10-01T06:05:45.412Z,100273.00
2022-10-01T06:08:19.654Z,100270.88
2022-10-01T06:10:49.933Z,100234.56
2022-10-01T06:13:24.315Z,100241.75
2022-10-01T06:16:13.177Z,100196.47
2022-10-01T06:19:18.876Z,100200.53
2022-10-01T06:21:45.680Z,100229.03
2022-10-01T06:24:12.258Z,100261.75
2022-10-01T06:26:38.916Z,100219.19
2022-10-01T06:29:05.480Z,100229.19
2022-10-01T06:31:37.195Z,100222.41
2022-10-01T06:34:04.287Z,100236.16
2022-10-01T06:36:36.938Z,100244.59
2022-10-01T06:39:09.480Z,100219.94
2022-10-01T06:41:40.045Z,100194.97
2022-10-01T06:44:11.293Z,100198.94
2022-10-01T06:46:37.856Z,100240.13
2022-10-01T06:49:04.454Z,100196.16
2022-10-01T06:51:49.820Z,100194.75
2022-10-01T06:54:19.634Z,100208.31
2022-10-01T06:56:46.239Z,100187.81
2022-10-01T06:59:12.686Z,100202.97
2022-10-01T07:01:39.371Z,100204.03
2022-10-01T07:04:06.256Z,100201.16
2022-10-01T07:06:39.294Z,100198.81
2022-10-01T07:09:05.913Z,100220.28
2022-10-01T07:11:32.869Z,100174.91
2022-10-01T07:16:50.111Z,100191.31
2022-10-01T07:20:15.703Z,100199.88
2022-10-01T07:22:42.328Z,100200.09
2022-10-01T07:25:09.566Z,100146.34
2022-10-01T07:27:36.533Z,100159.19
2022-10-01T07:30:03.514Z,100164.91
2022-10-01T07:32:31.705Z,100143.75
2022-10-01T07:34:59.209Z,100160.06
2022-10-01T07:37:25.656Z,100155.22
2022-10-01T07:39:52.236Z,100149.41
2022-10-01T07:45:29.146Z,100163.75
2022-10-01T07:48:03.343Z,100131.88
2022-10-01T08:05:45.181Z,100098.78
2022-10-01T09:35:21.399Z,99952.59
2022-10-01T09:46:47.199Z,99946.78
2022-10-01T13:35:40.769Z,99875.94
2022-10-01T13:38:29.537Z,99855.22
2022-10-01T13:41:15.348Z,99841.69
2022-10-01T13:44:00.110Z,99846.69
2022-10-01T13:46:52.747Z,99871.31
2022-10-01T13:49:26.956Z,99869.66
2022-10-01T13:52:05.909Z,99878.28
2022-10-01T13:55:10.463Z,99876.72
2022-10-01T13:57:41.465Z,99881.16
2022-10-01T14:04:59.896Z,99859.72
2022-10-01T14:11:57.806Z,99895.84
2022-10-01T14:15:16.901Z,99868.03
2022-10-01T14:17:45.432Z,99870.66
2022-10-01T14:20:21.194Z,99841.78
2022-10-01T14:23:10.996Z,99872.47
2022-10-01T14:25:54.054Z,99840.44
2022-10-01T14:28:44.180Z,99893.31
2022-10-01T14:31:31.773Z,99873.81
2022-10-01T14:34:05.249Z,99841.72
2022-10-01T14:37:12.646Z,99891.09
2022-10-01T14:40:00.407Z,99837.31
2022-10-01T14:43:18.621Z,99854.91
2022-10-01T14:46:03.021Z,99854.22
2022-10-01T14:48:40.824Z,99842.22
2022-10-01T14:51:26.188Z,99833.88
2022-10-01T14:54:06.227Z,99835.41
2022-10-01T14:56:39.241Z,99862.84
2022-10-01T14:59:53.394Z,99830.03
2022-10-01T15:02:30.229Z,99838.28
2022-10-01T15:05:07.733Z,99865.72
2022-10-01T15:07:37.003Z,99874.63
2022-10-01T15:10:07.839Z,99861.16
2022-10-01T15:12:50.824Z,99851.13
2022-10-01T15:15:20.682Z,99854.38
2022-10-01T15:18:08.211Z,99876.13
2022-10-01T15:20:35.288Z,99878.34
2022-10-01T15:23:08.352Z,99851.09
2022-10-01T15:26:05.689Z,99865.41
2022-10-01T15:29:04.781Z,99905.38
2022-10-01T15:31:33.594Z,99856.69
2022-10-01T15:34:03.195Z,99854.59
2022-10-01T15:36:34.795Z,99898.63
2022-10-01T15:39:24.910Z,99850.59
2022-10-01T15:54:27.092Z,99907.50
2022-10-01T16:12:13.233Z,99903.22
2022-10-01T17:14:15.923Z,99922.41
2022-10-01T17:16:45.859Z,99906.38
2022-10-01T17:51:39.132Z,99915.97
2022-10-01T17:54:05.946Z,99968.53
2022-10-01T17:56:33.313Z,99911.50
2022-10-01T17:59:00.285Z,99936.72
2022-10-01T18:01:26.846Z,99994.19
2022-10-01T18:04:13.239Z,99964.16
2022-10-01T18:06:46.740Z,99984.78
2022-10-01T18:09:13.604Z,99958.28
2022-10-01T18:11:49.416Z,99998.38
2022-10-01T18:14:23.245Z,99980.38
2022-10-01T18:16:50.093Z,99963.81
2022-10-01T18:19:53.016Z,100033.06
2022-10-01T18:24:04.468Z,100030.59
2022-10-01T18:26:22.352Z,100031.16
2022-10-01T18:32:10.060Z,100048.13
2022-10-01T18:35:02.537Z,100007.31
2022-10-01T18:42:23.690Z,100060.44
2022-10-01T18:45:21.727Z,100021.84
